Aeroporto :
LOGIN :

Iscrizione | Disclaimer

   EN    FR    IT 

 










Sommario :    VFR   VFR Marginale   IFR   IFR Intensivo   IFR Molto Intensivo
Visibilità : 
Base nubi : 
>= 8 km
>= 3000ft
5 / 8 km
1000 / 3000 ft
1500m / 5 km
500 / 1000 ft
800 / 1500m
200 / 500 ft
< 800m
< 200 ft
Simboli :   Temporali  Nebbia  Neve Forte  Precipitazioni Forti  Vento > 20 kt
SIGMETs :   Varie  Temporali  Ghiacco  Turbolenza  Onda orograficha  Ceneri Vulcaniche






- Altitudine del aeroporto : 203 ft
- Codice IATA : XMJ


LFBM - Mont-De-Marsan

ULTIMO METAR :
  • 090230Z AUTO 26012KT 9999 ///CB 11/09 Q1022 TEMPO 28015G35KT 4000 -SHRA

METARs OBSOLETI :
  • 090200Z AUTO 27014G24KT 9999 FEW014 SCT028 BKN036 10/08 Q1022 TEMPO 28015G35KT 4000 -SHRA SCT015TCU BKN030
  • 090130Z AUTO 25010KT 9999 FEW032 BKN046 OVC054 11/08 Q1022
  • 090100Z AUTO 25009KT 9999 SCT033 SCT040 BKN046 11/08 Q1022 NOSIG
  • 090030Z AUTO 25010KT 9999 FEW029 BKN038 OVC044 11/08 Q1022 NOSIG
  • 090000Z AUTO 23008KT 200V260 9999 FEW030 OVC037 11/08 Q1022 NOSIG

TAF TAF LFBM
Valido dal 09 a 03 ore il 10 a 03 ore UTC


090200Z 0903/1003 28005KT 9999 BKN020
TEMPO 0903/0914 28015G35KT
TEMPO 0903/1003 4000 -SHRA SCT015TCU BKN030



MetMap, La meteo Aeronautica in un colpo d'occhio ! - Copyright ORBIFLY Dicembre 2007 - Disclaimer

ORBIFLY MET'MAP TEAM :

Programmazione e sviluppo : Alexandra Zaïnal
Concezione : Baudouin d'Aumeries
Aiuto per la programmazione : Marc-Olivier Méhu
Supporto tecnico e logistico : Manuel Goepfert
Aiuto per la traduzione : Arnaldo La Scala

Contatto : metmap@orbifly.com




FONTI E CREDITI :

   NOAA